createdAt,value
2022-10-05T00:00:53.539Z,7.20
2022-10-05T00:03:22.924Z,7.43
2022-10-05T00:05:50.304Z,8.00
2022-10-05T00:08:25.426Z,7.83
2022-10-05T00:26:57.638Z,9.20
2022-10-05T00:29:25.353Z,9.00
2022-10-05T00:31:54.540Z,7.50
2022-10-05T00:34:21.746Z,8.73
2022-10-05T00:36:49.278Z,7.87
2022-10-05T00:39:19.276Z,8.10
2022-10-05T00:42:04.454Z,7.80
2022-10-05T00:44:35.291Z,7.73
2022-10-05T00:47:36.193Z,9.10
2022-10-05T00:50:31.177Z,8.83
2022-10-05T00:53:42.676Z,8.07
2022-10-05T00:56:33.791Z,8.17
2022-10-05T00:59:40.789Z,7.70
2022-10-05T01:02:34.351Z,7.00
2022-10-05T01:05:15.995Z,7.63
2022-10-05T01:08:02.521Z,7.37
2022-10-05T01:10:43.944Z,7.80
2022-10-05T01:13:33.010Z,7.73
2022-10-05T01:16:30.185Z,8.33
2022-10-05T01:19:46.672Z,7.37
2022-10-05T01:22:38.224Z,7.77
2022-10-05T01:26:05.170Z,9.33
2022-10-05T01:28:59.674Z,8.60
2022-10-05T01:31:53.873Z,7.63
2022-10-05T01:34:35.506Z,7.67
2022-10-05T01:37:20.955Z,7.57
2022-10-05T01:40:13.398Z,8.70
2022-10-05T01:43:09.043Z,8.10
2022-10-05T01:46:07.066Z,8.53
2022-10-05T01:48:58.141Z,8.77
2022-10-05T01:51:54.593Z,6.70
2022-10-05T01:54:51.823Z,8.00
2022-10-05T01:57:58.728Z,7.37
2022-10-05T02:00:26.546Z,7.40
2022-10-05T02:03:19.575Z,8.03
2022-10-05T02:06:20.017Z,8.13
2022-10-05T02:09:03.590Z,7.50
2022-10-05T02:11:31.056Z,8.27
2022-10-05T02:14:06.908Z,8.20
2022-10-05T02:16:44.363Z,7.77
2022-10-05T02:19:37.937Z,8.47
2022-10-05T02:22:16.216Z,7.60
2022-10-05T02:24:57.531Z,7.70
2022-10-05T02:27:38.739Z,8.37
2022-10-05T02:30:12.795Z,7.80
2022-10-05T02:32:56.512Z,7.57
2022-10-05T02:35:23.669Z,8.10
2022-10-05T02:38:23.887Z,7.30
2022-10-05T02:41:25.840Z,7.70
2022-10-05T02:44:21.149Z,8.20
2022-10-05T02:47:46.576Z,7.13
2022-10-05T02:50:16.535Z,7.47
2022-10-05T02:53:39.310Z,8.67
2022-10-05T02:56:35.773Z,7.20
2022-10-05T02:59:50.415Z,7.50
2022-10-05T03:02:35.943Z,6.93
2022-10-05T03:05:24.562Z,6.93
2022-10-05T03:08:19.247Z,7.00
2022-10-05T03:11:18.698Z,6.60
2022-10-05T03:14:14.502Z,7.53
2022-10-05T03:17:03.048Z,7.37
2022-10-05T03:19:40.877Z,6.93
2022-10-05T03:22:20.001Z,7.43
2022-10-05T03:25:17.838Z,7.20
2022-10-05T03:27:54.238Z,7.37
2022-10-05T03:30:25.738Z,7.17
2022-10-05T03:33:42.761Z,8.53
2022-10-05T03:36:37.863Z,7.40
2022-10-05T03:39:21.474Z,7.60
2022-10-05T03:42:10.560Z,7.53
2022-10-05T03:44:49.185Z,7.60
2022-10-05T03:47:34.407Z,7.50
2022-10-05T03:50:22.862Z,7.70
2022-10-05T03:53:02.143Z,7.83
2022-10-05T03:55:49.688Z,7.83
2022-10-05T03:58:30.457Z,8.47
2022-10-05T04:01:05.617Z,7.93
2022-10-05T04:03:48.403Z,8.87
2022-10-05T04:06:26.549Z,7.87
2022-10-05T04:09:10.192Z,8.17
2022-10-05T04:11:58.205Z,8.00
2022-10-05T04:14:41.518Z,9.20
2022-10-05T04:17:32.687Z,7.87
2022-10-05T04:20:07.883Z,8.53
2022-10-05T04:22:43.280Z,8.27
2022-10-05T04:25:46.650Z,7.70
2022-10-05T04:28:29.640Z,10.03
2022-10-05T04:31:04.680Z,8.13
2022-10-05T04:33:33.442Z,12.27
2022-10-05T04:36:36.335Z,8.60
2022-10-05T04:39:33.264Z,8.50
2022-10-05T04:42:18.177Z,8.83
2022-10-05T04:45:09.770Z,8.43
2022-10-05T04:47:47.923Z,8.30
2022-10-05T04:50:48.465Z,8.93
2022-10-05T04:53:30.594Z,8.03
2022-10-05T04:56:41.430Z,7.87
2022-10-05T05:00:28.721Z,7.77
2022-10-05T05:03:13.582Z,9.10
2022-10-05T05:06:15.230Z,10.87
2022-10-05T05:08:47.594Z,8.03
2022-10-05T05:12:06.858Z,8.60
2022-10-05T05:15:14.379Z,7.20
2022-10-05T05:18:04.124Z,7.00
2022-10-05T05:21:14.991Z,7.33
2022-10-05T05:24:19.408Z,7.33
2022-10-05T05:27:05.327Z,7.17
2022-10-05T05:30:06.053Z,7.80
2022-10-05T05:32:41.031Z,6.70
2022-10-05T05:35:23.296Z,7.27
2022-10-05T05:38:25.391Z,7.10
2022-10-05T05:41:25.209Z,6.83
2022-10-05T05:44:19.172Z,7.53
2022-10-05T05:47:24.069Z,7.97
2022-10-05T05:50:07.315Z,7.10
2022-10-05T05:53:05.770Z,7.70
2022-10-05T05:55:47.779Z,7.10
2022-10-05T05:58:34.601Z,7.17
2022-10-05T06:01:37.686Z,6.83
2022-10-05T06:04:16.896Z,6.37
2022-10-05T06:06:51.633Z,6.33
2022-10-05T06:09:28.925Z,6.30
2022-10-05T06:12:09.147Z,6.00
2022-10-05T06:14:51.445Z,7.00
2022-10-05T06:17:30.786Z,6.73
2022-10-05T06:20:04.890Z,7.10
2022-10-05T06:22:43.296Z,6.80
2022-10-05T06:25:13.160Z,5.97
2022-10-05T06:28:13.906Z,6.27
2022-10-05T06:30:51.813Z,5.67
2022-10-05T06:33:52.602Z,5.53
2022-10-05T06:36:45.793Z,5.63
2022-10-05T06:39:30.051Z,5.37
2022-10-05T06:42:28.408Z,4.93
2022-10-05T06:45:19.473Z,5.93
2022-10-05T06:48:05.634Z,5.60
2022-10-05T06:50:39.204Z,5.93
2022-10-05T06:53:27.503Z,7.43
2022-10-05T06:56:12.303Z,5.73
2022-10-05T06:58:53.857Z,5.40
2022-10-05T07:01:57.782Z,5.33
2022-10-05T07:04:45.977Z,4.90
2022-10-05T07:07:44.184Z,5.87
2022-10-05T07:10:45.647Z,5.07
2022-10-05T07:13:49.805Z,4.93
2022-10-05T07:16:52.253Z,5.47
2022-10-05T07:19:31.961Z,5.90
2022-10-05T07:22:35.576Z,5.73
2022-10-05T07:25:33.966Z,8.43
2022-10-05T07:28:14.120Z,5.53
2022-10-05T07:30:57.985Z,5.13
2022-10-05T07:33:43.151Z,6.73
2022-10-05T07:37:04.947Z,5.73
2022-10-05T07:40:00.627Z,5.43
2022-10-05T07:42:51.751Z,5.33
2022-10-05T07:46:03.053Z,6.87
2022-10-05T07:48:50.643Z,5.30
2022-10-05T07:51:45.144Z,6.63
2022-10-05T07:55:02.133Z,5.27
2022-10-05T07:57:59.859Z,6.17
2022-10-05T08:01:04.802Z,4.80
2022-10-05T08:03:56.511Z,5.13
2022-10-05T08:06:39.102Z,5.00
2022-10-05T08:09:50.349Z,5.17
2022-10-05T08:12:27.035Z,5.07
2022-10-05T08:15:13.987Z,6.77
2022-10-05T08:18:03.001Z,4.63
2022-10-05T08:20:40.132Z,4.80
2022-10-05T08:23:33.868Z,5.97
2022-10-05T08:26:06.570Z,4.20
2022-10-05T08:28:54.595Z,4.90
2022-10-05T08:31:33.741Z,4.47
2022-10-05T08:34:22.659Z,4.47
2022-10-05T08:37:23.865Z,4.23
2022-10-05T08:40:21.685Z,3.93
2022-10-05T08:43:00.029Z,4.43
2022-10-05T08:46:04.386Z,4.07
2022-10-05T08:48:31.565Z,5.07
2022-10-05T08:51:42.893Z,5.50
2022-10-05T08:54:18.867Z,4.30
2022-10-05T08:57:06.286Z,4.17
2022-10-05T09:00:10.662Z,4.57
2022-10-05T09:03:35.414Z,4.53
2022-10-05T09:06:25.747Z,4.10
2022-10-05T09:09:42.195Z,4.30
2022-10-05T09:12:31.705Z,3.97
2022-10-05T09:15:52.832Z,4.20
2022-10-05T09:18:57.249Z,4.23
2022-10-05T09:21:42.160Z,4.13
2022-10-05T09:24:15.642Z,7.00
2022-10-05T09:27:03.991Z,3.90
2022-10-05T09:29:52.616Z,3.37
2022-10-05T09:32:47.261Z,3.70
2022-10-05T09:35:20.856Z,4.07
2022-10-05T09:38:16.205Z,4.30
2022-10-05T09:41:10.845Z,4.00
2022-10-05T09:44:03.043Z,4.00
2022-10-05T09:46:51.690Z,4.20
2022-10-05T09:50:11.309Z,4.27
2022-10-05T09:53:07.292Z,4.70
2022-10-05T09:55:49.200Z,4.67
2022-10-05T09:58:44.924Z,3.37
2022-10-05T10:01:51.793Z,3.23
2022-10-05T10:05:11.822Z,6.47
2022-10-05T10:07:52.169Z,3.67
2022-10-05T10:10:49.902Z,4.23
2022-10-05T10:14:04.418Z,4.27
2022-10-05T10:16:54.832Z,3.80
2022-10-05T10:19:52.478Z,3.03
2022-10-05T10:23:09.998Z,3.53
2022-10-05T10:26:12.002Z,3.57
2022-10-05T10:29:08.017Z,5.17
2022-10-05T10:31:53.592Z,3.00
2022-10-05T10:35:01.248Z,3.37
2022-10-05T10:37:42.559Z,4.20
2022-10-05T10:40:38.605Z,3.50
2022-10-05T10:43:51.896Z,3.17
2022-10-05T10:46:27.925Z,3.87
2022-10-05T10:49:26.274Z,3.63
2022-10-05T10:52:26.083Z,3.90
2022-10-05T10:55:33.258Z,3.90
2022-10-05T10:58:21.324Z,2.80
2022-10-05T11:01:20.068Z,4.10
2022-10-05T11:04:23.759Z,3.20
2022-10-05T11:07:18.248Z,4.03
2022-10-05T11:10:20.243Z,3.40
2022-10-05T11:13:43.149Z,3.20
2022-10-05T11:16:43.362Z,3.30
2022-10-05T11:20:02.453Z,5.70
2022-10-05T11:22:57.837Z,2.87
2022-10-05T11:25:58.230Z,2.70
2022-10-05T11:29:04.832Z,2.80
2022-10-05T11:32:17.994Z,2.60
2022-10-05T11:35:18.477Z,3.00
2022-10-05T11:38:37.738Z,4.90
2022-10-05T11:41:44.211Z,3.17
2022-10-05T11:44:44.016Z,4.70
2022-10-05T11:48:04.015Z,4.20
2022-10-05T11:50:43.169Z,2.50
2022-10-05T11:53:46.214Z,2.90
2022-10-05T11:56:44.817Z,3.80
2022-10-05T11:59:42.452Z,4.13
2022-10-05T12:02:46.387Z,2.43
2022-10-05T12:05:56.915Z,2.43
2022-10-05T12:08:58.095Z,2.13
2022-10-05T12:12:06.083Z,1.97
2022-10-05T12:14:50.632Z,2.90
2022-10-05T12:17:57.095Z,2.17
2022-10-05T12:20:46.427Z,3.23
2022-10-05T12:23:43.699Z,2.20
2022-10-05T12:26:41.217Z,2.30
2022-10-05T12:29:25.728Z,1.97
2022-10-05T12:32:34.910Z,1.90
2022-10-05T12:35:47.786Z,2.83
2022-10-05T12:38:50.227Z,2.13
2022-10-05T12:41:40.557Z,2.47
2022-10-05T12:44:33.357Z,5.77
2022-10-05T12:47:15.368Z,2.07
2022-10-05T12:50:23.758Z,2.00
2022-10-05T12:53:33.472Z,2.00
2022-10-05T12:56:51.841Z,4.67
2022-10-05T12:59:34.093Z,2.20
2022-10-05T13:02:39.295Z,2.40
2022-10-05T13:05:09.590Z,2.10
2022-10-05T13:07:57.064Z,3.00
2022-10-05T13:10:48.689Z,1.93
2022-10-05T13:13:56.284Z,4.60
2022-10-05T13:16:36.416Z,2.03
2022-10-05T13:19:12.654Z,1.83
2022-10-05T13:22:01.876Z,2.10
2022-10-05T13:24:49.588Z,2.07
2022-10-05T13:27:36.778Z,3.77
2022-10-05T13:30:19.661Z,1.77
2022-10-05T13:33:11.143Z,3.50
2022-10-05T13:36:10.598Z,3.03
2022-10-05T13:39:35.755Z,1.93
2022-10-05T13:42:15.059Z,1.90
2022-10-05T13:45:32.074Z,2.20
2022-10-05T13:48:40.823Z,1.70
2022-10-05T13:51:28.657Z,2.13
2022-10-05T13:54:24.457Z,2.60
2022-10-05T13:57:05.845Z,2.07
2022-10-05T13:59:58.774Z,2.30
2022-10-05T14:02:40.435Z,4.00
2022-10-05T14:05:31.163Z,1.70
2022-10-05T14:08:17.707Z,1.83
2022-10-05T14:10:47.899Z,4.73
2022-10-05T14:13:32.282Z,2.30
2022-10-05T14:16:13.528Z,2.00
2022-10-05T14:19:07.081Z,2.70
2022-10-05T14:22:04.055Z,3.73
2022-10-05T14:24:44.803Z,1.93
2022-10-05T14:27:55.913Z,2.63
2022-10-05T14:30:29.641Z,2.03
2022-10-05T14:33:06.046Z,2.10
2022-10-05T14:35:58.034Z,2.00
2022-10-05T14:38:32.618Z,3.03
2022-10-05T14:41:19.163Z,1.97
2022-10-05T14:44:15.614Z,1.50
2022-10-05T14:47:22.751Z,2.47
2022-10-05T14:50:17.000Z,1.80
2022-10-05T14:52:59.866Z,2.27
2022-10-05T14:55:57.742Z,1.60
2022-10-05T14:58:35.227Z,1.93
2022-10-05T15:01:36.903Z,3.27
2022-10-05T15:04:43.014Z,2.43
2022-10-05T15:07:39.080Z,2.10
2022-10-05T15:10:27.101Z,1.73
2022-10-05T15:13:13.493Z,2.90
2022-10-05T15:16:00.275Z,2.23
2022-10-05T15:18:53.452Z,3.20
2022-10-05T15:22:01.221Z,3.37
2022-10-05T15:24:43.724Z,2.67
2022-10-05T15:27:25.780Z,2.87
2022-10-05T15:30:18.320Z,1.90
2022-10-05T15:33:23.380Z,2.10
2022-10-05T15:36:19.026Z,3.00
2022-10-05T15:39:29.733Z,2.43
2022-10-05T15:42:03.376Z,2.30
2022-10-05T15:45:20.024Z,3.37
2022-10-05T15:48:11.324Z,4.50
2022-10-05T15:50:45.945Z,4.37
2022-10-05T15:53:44.212Z,2.40
2022-10-05T15:56:33.868Z,4.80
2022-10-05T15:59:30.303Z,5.13
2022-10-05T16:02:10.157Z,3.97
2022-10-05T16:04:54.259Z,3.20
2022-10-05T16:07:49.552Z,2.90
2022-10-05T16:10:24.233Z,4.27
2022-10-05T16:13:05.515Z,2.70
2022-10-05T16:15:58.429Z,3.27
2022-10-05T16:19:25.175Z,2.67
2022-10-05T16:22:22.509Z,2.80
2022-10-05T16:25:24.781Z,2.97
2022-10-05T16:28:39.492Z,3.73
2022-10-05T16:31:31.312Z,2.90
2022-10-05T16:34:27.832Z,3.07
2022-10-05T16:37:14.522Z,2.40
2022-10-05T16:40:00.856Z,2.10
2022-10-05T16:43:08.101Z,1.60
2022-10-05T16:46:27.701Z,5.50
2022-10-05T16:49:34.796Z,2.47
2022-10-05T16:52:08.667Z,1.97
2022-10-05T16:54:49.932Z,2.07
2022-10-05T16:57:38.896Z,1.90
2022-10-05T17:00:16.096Z,3.40
2022-10-05T17:03:05.195Z,3.57
2022-10-05T17:06:24.159Z,2.60
2022-10-05T17:09:18.922Z,1.87
2022-10-05T17:12:11.907Z,2.40
2022-10-05T17:15:31.763Z,2.17
2022-10-05T17:18:51.014Z,2.10
2022-10-05T17:21:45.577Z,2.57
2022-10-05T17:24:19.812Z,2.87
2022-10-05T17:26:52.877Z,3.03
2022-10-05T17:29:26.738Z,3.43
2022-10-05T17:32:33.876Z,6.43
2022-10-05T17:35:01.137Z,3.17
2022-10-05T17:38:05.379Z,3.60
2022-10-05T17:40:34.890Z,2.93
2022-10-05T17:43:17.212Z,2.53
2022-10-05T17:45:44.222Z,3.10
2022-10-05T17:48:49.204Z,3.60
2022-10-05T17:51:46.821Z,4.10
2022-10-05T17:55:03.411Z,2.67
2022-10-05T17:57:32.138Z,4.17
2022-10-05T18:00:25.683Z,3.77
2022-10-05T18:02:58.381Z,2.70
2022-10-05T18:05:30.413Z,4.17
2022-10-05T18:08:13.075Z,2.40
2022-10-05T18:11:09.249Z,3.17
2022-10-05T18:13:45.606Z,3.23
2022-10-05T18:16:34.336Z,4.07
2022-10-05T18:19:02.422Z,3.87
2022-10-05T18:21:34.986Z,3.43
2022-10-05T18:24:37.217Z,3.20
2022-10-05T18:27:48.253Z,3.17
2022-10-05T18:30:44.872Z,3.07
2022-10-05T18:34:01.932Z,2.50
2022-10-05T18:36:58.842Z,2.53
2022-10-05T18:40:16.748Z,2.53
2022-10-05T18:42:49.632Z,2.97
2022-10-05T18:45:37.536Z,3.53
2022-10-05T18:48:19.980Z,2.83
2022-10-05T18:51:27.367Z,2.40
2022-10-05T18:54:03.329Z,2.73
2022-10-05T18:56:42.293Z,3.27
2022-10-05T18:59:48.428Z,3.27
2022-10-05T19:02:27.646Z,4.17
2022-10-05T19:05:09.189Z,3.33
2022-10-05T19:08:13.297Z,2.90
2022-10-05T19:10:51.328Z,3.27
2022-10-05T19:13:31.202Z,3.70
2022-10-05T19:16:17.138Z,3.03
2022-10-05T19:19:09.659Z,4.03
2022-10-05T19:21:54.144Z,3.70
2022-10-05T19:24:33.896Z,3.27
2022-10-05T19:27:10.419Z,3.03
2022-10-05T19:30:19.215Z,2.67
2022-10-05T19:33:23.855Z,6.63
2022-10-05T19:36:35.628Z,4.00
2022-10-05T19:39:14.375Z,3.00
2022-10-05T19:42:45.172Z,2.67
2022-10-05T19:45:35.956Z,2.67
2022-10-05T19:48:44.671Z,3.03
2022-10-05T19:51:29.399Z,2.87
2022-10-05T19:54:25.917Z,4.97
2022-10-05T19:56:55.161Z,3.60
2022-10-05T19:59:34.911Z,5.03
2022-10-05T20:02:02.600Z,4.13
2022-10-05T20:04:43.297Z,5.67
2022-10-05T20:07:21.786Z,4.80
2022-10-05T20:10:24.670Z,3.77
2022-10-05T20:12:58.778Z,3.20
2022-10-05T20:15:54.321Z,2.30
2022-10-05T20:19:07.276Z,2.50
2022-10-05T20:21:48.146Z,4.87
2022-10-05T20:24:18.547Z,4.90
2022-10-05T20:27:02.380Z,4.40
2022-10-05T20:29:38.826Z,4.90
2022-10-05T20:32:19.521Z,3.07
2022-10-05T20:34:49.507Z,3.27
2022-10-05T20:37:19.175Z,3.87
2022-10-05T20:39:48.087Z,3.53
2022-10-05T20:42:15.251Z,4.10
2022-10-05T20:44:42.842Z,2.50
2022-10-05T20:47:13.872Z,4.73
2022-10-05T20:49:41.401Z,3.67
2022-10-05T20:52:11.503Z,5.53
2022-10-05T20:54:39.594Z,4.30
2022-10-05T20:57:10.312Z,2.90
2022-10-05T20:59:37.970Z,2.50
2022-10-05T21:02:06.289Z,2.90
2022-10-05T21:04:40.882Z,3.53
2022-10-05T21:07:09.763Z,3.77
2022-10-05T21:09:38.586Z,5.10
2022-10-05T21:12:06.054Z,2.83
2022-10-05T21:14:34.574Z,3.73
2022-10-05T21:17:03.845Z,2.47
2022-10-05T21:19:34.280Z,2.70
2022-10-05T21:22:02.651Z,4.60
2022-10-05T21:24:31.995Z,1.93
2022-10-05T21:26:59.273Z,2.60
2022-10-05T21:29:26.604Z,2.73
2022-10-05T21:31:53.885Z,2.00
2022-10-05T21:34:21.216Z,1.93
2022-10-05T21:36:48.310Z,1.70
2022-10-05T21:39:15.471Z,2.77
2022-10-05T21:41:42.759Z,1.73
2022-10-05T21:44:09.909Z,1.80
2022-10-05T21:46:38.657Z,1.60
2022-10-05T21:49:08.416Z,1.50
2022-10-05T21:51:36.777Z,2.23
2022-10-05T21:54:18.691Z,2.43
2022-10-05T21:56:51.782Z,2.23
2022-10-05T21:59:24.136Z,2.03
2022-10-05T22:01:51.251Z,2.47
2022-10-05T22:04:37.178Z,1.93
2022-10-05T22:07:19.001Z,1.83
2022-10-05T22:09:51.782Z,1.47
2022-10-05T22:12:22.356Z,2.80
2022-10-05T22:14:49.866Z,4.00
2022-10-05T22:17:29.620Z,3.57
2022-10-05T22:19:58.800Z,1.50
2022-10-05T22:22:28.242Z,2.43
2022-10-05T22:24:56.535Z,2.40
2022-10-05T22:27:27.842Z,1.50
2022-10-05T22:29:58.195Z,1.30
2022-10-05T22:32:25.549Z,0.80
2022-10-05T22:34:52.606Z,1.23
2022-10-05T22:37:19.774Z,1.07
2022-10-05T22:39:46.888Z,2.77
2022-10-05T22:42:14.073Z,2.10
2022-10-05T22:44:42.371Z,1.13
2022-10-05T22:47:09.503Z,4.17
2022-10-05T22:49:36.646Z,1.93
2022-10-05T22:52:04.112Z,1.77
2022-10-05T22:54:34.274Z,2.10
2022-10-05T22:57:03.831Z,1.87
2022-10-05T22:59:31.466Z,2.33
2022-10-05T23:01:59.137Z,1.90
2022-10-05T23:04:26.444Z,1.60
2022-10-05T23:06:53.498Z,3.03
2022-10-05T23:09:20.578Z,2.20
2022-10-05T23:11:52.149Z,3.03
2022-10-05T23:14:19.750Z,2.30
2022-10-05T23:16:47.767Z,2.00
2022-10-05T23:19:23.596Z,2.53
2022-10-05T23:21:50.631Z,3.27
2022-10-05T23:24:17.813Z,2.57
2022-10-05T23:26:44.928Z,2.77
2022-10-05T23:29:12.078Z,3.47
2022-10-05T23:31:39.476Z,2.00
2022-10-05T23:34:06.588Z,4.17
2022-10-05T23:36:33.801Z,2.10
2022-10-05T23:39:03.277Z,2.57
2022-10-05T23:41:30.353Z,3.17
2022-10-05T23:43:57.535Z,1.03
2022-10-05T23:46:24.709Z,2.63
2022-10-05T23:48:53.398Z,1.80
2022-10-05T23:51:20.648Z,1.93
2022-10-05T23:53:47.828Z,1.53
2022-10-05T23:56:15.435Z,2.03
2022-10-05T23:58:42.642Z,2.87
